Time;durP1;ratioP1;P1;durP2;ratioP2;P2;SDS_P1;SDS_P2;PMS_P1;PMS_P2;Temp;Humidity;BMP_temperature;BMP_pressure;BME280_temperature;BME280_humidity;BME280_pressure;Samples;Min_cycle;Max_cycle;Signal;HPM_P1;HPM_P2
2023/07/13 00:01:57;;;;;;;5.28;3.42;;;27.60;99.90;;;;;;1817024;77;21071;-82
2023/07/13 00:04:32;;;;;;;8.57;4.30;;;27.60;99.90;;;;;;1821333;77;21216;-84
2023/07/13 00:07:07;;;;;;;8.93;3.67;;;27.60;99.90;;;;;;1824025;77;21158;-84
2023/07/13 00:09:39;;;;;;;8.70;4.40;;;27.60;99.90;;;;;;1799934;78;21108;-84
2023/07/13 00:12:26;;;;;;;8.05;4.30;;;27.60;99.90;;;;;;1820024;77;21169;-86
2023/07/13 00:14:59;;;;;;;10.75;4.87;;;27.50;99.90;;;;;;1838605;77;21103;-82
2023/07/13 00:17:32;;;;;;;8.35;4.62;;;27.40;99.90;;;;;;1803434;78;21171;-84
2023/07/13 00:20:08;;;;;;;11.57;4.95;;;27.40;99.90;;;;;;1798073;78;21185;-83
2023/07/13 00:22:41;;;;;;;9.73;4.90;;;27.40;99.90;;;;;;1788257;79;21173;-80
2023/07/13 00:25:17;;;;;;;12.80;5.40;;;27.40;99.90;;;;;;1823192;77;21193;-81
2023/07/13 00:27:53;;;;;;;11.23;5.33;;;27.40;99.90;;;;;;1823969;77;21068;-81
2023/07/13 00:30:29;;;;;;;;;;;27.50;99.90;;;;;;1793710;79;21675;-84
2023/07/13 00:33:04;;;;;;;11.12;5.20;;;27.50;99.90;;;;;;1830578;77;20425;-83
2023/07/13 00:35:39;;;;;;;10.80;5.20;;;27.60;99.90;;;;;;1821066;77;21605;-82
2023/07/13 00:38:14;;;;;;;10.48;5.62;;;27.60;99.90;;;;;;1790259;78;21131;-80
2023/07/13 00:40:55;;;;;;;10.43;5.85;;;27.70;99.90;;;;;;1804752;78;21178;-79
2023/07/13 00:43:32;;;;;;;12.53;5.17;;;27.70;99.90;;;;;;1808103;78;21525;-81
2023/07/13 00:46:23;;;;;;;16.67;4.37;;;27.80;99.90;;;;;;1825345;77;21135;-82
2023/07/13 00:48:59;;;;;;;25.08;5.17;;;27.80;99.90;;;;;;1799319;78;21245;-82
2023/07/13 00:51:46;;;;;;;21.25;4.20;;;27.90;99.90;;;;;;1798313;78;21096;-82
2023/07/13 00:54:22;;;;;;;11.93;4.17;;;28.00;99.90;;;;;;1824555;77;21519;-79
2023/07/13 00:56:59;;;;;;;9.40;3.95;;;28.10;99.90;;;;;;1795834;79;21812;-84
2023/07/13 00:59:44;;;;;;;9.28;3.45;;;28.10;99.90;;;;;;1803449;78;21190;-80
2023/07/13 01:02:21;;;;;;;10.25;4.00;;;28.20;99.90;;;;;;1804209;79;21554;-80
2023/07/13 01:04:57;;;;;;;7.62;4.12;;;28.20;99.90;;;;;;1818043;79;21092;-82
2023/07/13 01:07:33;;;;;;;10.32;4.70;;;28.30;99.90;;;;;;1815211;79;21126;-80
2023/07/13 01:10:09;;;;;;;6.80;3.90;;;28.40;99.90;;;;;;1807937;78;21075;-80
2023/07/13 01:12:46;;;;;;;12.93;4.85;;;28.40;99.90;;;;;;1815862;78;21152;-84
2023/07/13 01:15:38;;;;;;;9.65;4.20;;;28.50;99.90;;;;;;1819244;77;21099;-81
2023/07/13 01:18:22;;;;;;;4.05;2.62;;;28.70;99.90;;;;;;1816717;78;21158;-78
2023/07/13 01:21:01;;;;;;;9.28;3.95;;;28.70;99.90;;;;;;1808752;79;21076;-82
2023/07/13 01:23:36;;;;;;;5.35;2.70;;;28.80;99.90;;;;;;1814712;78;21143;-80
2023/07/13 01:26:07;;;;;;;7.25;3.15;;;28.90;99.90;;;;;;1815247;78;21151;-82
2023/07/13 01:28:52;;;;;;;10.68;3.75;;;29.00;99.90;;;;;;1816712;78;21166;-84
2023/07/13 01:31:26;;;;;;;24.75;5.65;;;29.10;99.90;;;;;;1814203;77;21103;-85
2023/07/13 01:34:00;;;;;;;14.95;4.90;;;29.20;99.90;;;;;;1810382;77;21087;-82
2023/07/13 01:36:34;;;;;;;10.23;3.77;;;29.30;99.90;;;;;;1827308;78;21227;-67
2023/07/13 01:39:06;;;;;;;7.50;3.00;;;29.50;99.90;;;;;;1814616;78;21158;-68
2023/07/13 01:41:40;;;;;;;17.92;4.22;;;29.60;99.90;;;;;;1815153;78;21648;-69
2023/07/13 01:44:13;;;;;;;4.50;2.37;;;29.80;99.90;;;;;;1819837;77;21212;-67
2023/07/13 01:46:48;;;;;;;8.40;3.17;;;29.90;99.90;;;;;;1798919;78;21556;-68
2023/07/13 01:49:21;;;;;;;9.18;3.40;;;30.00;99.90;;;;;;1837213;77;21087;-69
2023/07/13 01:51:53;;;;;;;10.38;3.17;;;30.20;99.70;;;;;;1831261;77;21169;-67
2023/07/13 01:54:26;;;;;;;11.08;4.22;;;30.30;99.50;;;;;;1832430;77;21168;-70
2023/07/13 01:56:59;;;;;;;7.70;2.90;;;30.40;99.30;;;;;;1828370;77;21169;-66
2023/07/13 01:59:33;;;;;;;11.28;3.30;;;30.50;99.10;;;;;;1835585;77;21200;-67
2023/07/13 02:02:07;;;;;;;13.72;4.58;;;30.60;99.30;;;;;;1833320;77;21082;-67
2023/07/13 02:04:41;;;;;;;10.48;4.22;;;30.60;99.10;;;;;;1832085;77;21148;-67
2023/07/13 02:07:15;;;;;;;8.03;3.40;;;30.70;98.50;;;;;;1841593;77;21138;-67
2023/07/13 02:09:46;;;;;;;14.65;5.50;;;30.80;98.10;;;;;;1844733;77;21173;-69
2023/07/13 02:12:18;;;;;;;12.63;4.30;;;30.90;98.20;;;;;;1834040;77;21067;-67
2023/07/13 02:14:52;;;;;;;8.43;2.77;;;31.00;98.20;;;;;;1830801;77;21130;-70
2023/07/13 02:17:26;;;;;;;7.22;3.75;;;31.10;97.50;;;;;;1830058;77;21091;-68
2023/07/13 02:19:57;;;;;;;6.53;2.65;;;31.10;97.60;;;;;;1832153;77;21613;-67
2023/07/13 02:22:31;;;;;;;11.65;3.70;;;31.20;97.30;;;;;;1839470;77;21635;-68
2023/07/13 02:25:06;;;;;;;9.85;3.25;;;31.30;97.40;;;;;;1839600;77;21102;-67
2023/07/13 02:27:37;;;;;;;27.32;7.20;;;31.40;97.40;;;;;;1841967;77;21072;-67
2023/07/13 02:30:11;;;;;;;14.53;5.65;;;31.40;97.10;;;;;;1829619;77;21177;-69
2023/07/13 02:32:44;;;;;;;9.18;3.95;;;31.50;96.80;;;;;;1831304;77;21555;-70
2023/07/13 02:35:18;;;;;;;13.35;5.12;;;31.50;96.70;;;;;;1836911;77;21173;-69
2023/07/13 02:37:51;;;;;;;9.75;4.87;;;31.60;96.70;;;;;;1830942;77;21519;-69
2023/07/13 02:40:24;;;;;;;19.67;9.73;;;31.60;96.70;;;;;;1829654;77;21193;-67
2023/07/13 02:42:56;;;;;;;21.30;4.50;;;31.70;97.00;;;;;;1826677;77;21651;-69
2023/07/13 02:45:29;;;;;;;8.90;3.70;;;31.70;96.90;;;;;;1820687;77;21213;-68
2023/07/13 02:48:02;;;;;;;31.40;5.97;;;31.80;97.00;;;;;;1821604;77;21549;-70
2023/07/13 02:50:35;;;;;;;10.82;3.70;;;31.80;96.50;;;;;;1803982;77;21167;-68
2023/07/13 02:53:08;;;;;;;10.05;3.87;;;31.90;96.60;;;;;;1823581;77;21569;-69
2023/07/13 02:55:47;;;;;;;11.20;3.90;;;32.00;96.20;;;;;;1821054;78;21123;-68
2023/07/13 02:58:19;;;;;;;10.18;3.90;;;32.10;96.30;;;;;;1824553;77;21104;-68
2023/07/13 03:00:52;;;;;;;6.55;3.55;;;32.10;96.30;;;;;;1827825;77;21502;-70
2023/07/13 03:03:23;;;;;;;6.03;3.00;;;32.20;95.90;;;;;;1832448;77;21135;-71
2023/07/13 03:06:02;;;;;;;9.25;2.67;;;32.30;95.40;;;;;;1830025;77;21107;-68
2023/07/13 03:08:39;;;;;;;19.07;5.45;;;32.20;95.70;;;;;;1838730;77;21104;-68
2023/07/13 03:11:16;;;;;;;30.50;6.58;;;32.20;96.00;;;;;;1830175;77;21178;-67
2023/07/13 03:13:50;;;;;;;20.35;6.00;;;32.20;95.90;;;;;;1831340;77;21106;-69
2023/07/13 03:16:22;;;;;;;5.72;3.00;;;32.10;96.20;;;;;;1831850;77;21119;-69
2023/07/13 03:18:53;;;;;;;11.50;5.08;;;32.20;95.80;;;;;;1834176;77;21176;-68
2023/07/13 03:21:28;;;;;;;28.92;6.72;;;32.30;96.00;;;;;;1799792;79;21678;-67
2023/07/13 03:24:04;;;;;;;15.58;4.33;;;32.40;96.00;;;;;;1841290;77;21478;-67
2023/07/13 03:26:38;;;;;;;11.80;4.10;;;32.50;96.20;;;;;;1794215;78;21091;-67
2023/07/13 03:29:09;;;;;;;14.75;3.85;;;32.60;95.40;;;;;;1829550;77;21482;-68
2023/07/13 03:31:42;;;;;;;4.95;2.80;;;32.60;95.40;;;;;;1819218;77;21088;-68
2023/07/13 03:34:17;;;;;;;;;;;32.70;94.70;;;;;;1794809;78;21269;-67
2023/07/13 03:36:50;;;;;;;7.05;3.00;;;32.70;95.30;;;;;;1835195;77;20439;-68
2023/07/13 03:39:24;;;;;;;15.08;5.45;;;32.60;94.60;;;;;;1840542;77;21575;-68
2023/07/13 03:41:56;;;;;;;7.83;2.92;;;32.60;94.90;;;;;;1804559;78;21128;-69
2023/07/13 03:44:29;;;;;;;4.67;2.95;;;32.60;94.60;;;;;;1833709;77;21142;-68
2023/07/13 03:47:05;;;;;;;15.05;4.90;;;32.70;94.60;;;;;;1804037;78;21157;-66
2023/07/13 03:49:39;;;;;;;6.80;2.70;;;32.70;95.00;;;;;;1802492;78;21186;-68
2023/07/13 03:52:14;;;;;;;;;;;32.90;94.80;;;;;;1773899;80;21184;-64
2023/07/13 03:54:48;;;;;;;10.00;3.75;;;33.00;94.80;;;;;;1801822;79;20529;-69
2023/07/13 03:57:22;;;;;;;13.93;3.50;;;33.10;93.80;;;;;;1808056;78;21548;-67
2023/07/13 03:59:53;;;;;;;4.08;2.60;;;33.10;93.80;;;;;;1808217;78;21146;-69
2023/07/13 04:02:26;;;;;;;13.62;2.98;;;33.30;92.70;;;;;;1802319;78;21123;-67
2023/07/13 04:04:59;;;;;;;7.05;2.98;;;33.30;92.40;;;;;;1797725;78;21301;-68
2023/07/13 04:07:30;;;;;;;17.95;3.87;;;33.30;92.70;;;;;;1809951;78;21628;-67
2023/07/13 04:10:02;;;;;;;6.35;2.70;;;33.30;92.70;;;;;;1807598;78;21193;-67
2023/07/13 04:12:35;;;;;;;7.10;2.70;;;33.40;93.00;;;;;;1806535;78;21186;-67
2023/07/13 04:15:08;;;;;;;8.93;3.20;;;33.40;93.20;;;;;;1799767;78;21530;-67
2023/07/13 04:17:39;;;;;;;10.63;4.53;;;33.40;92.90;;;;;;1771553;80;21238;-68
2023/07/13 04:20:12;;;;;;;14.58;5.25;;;33.40;93.30;;;;;;1772968;80;21505;-72
2023/07/13 04:22:45;;;;;;;7.37;2.85;;;33.50;93.70;;;;;;1770046;80;21238;-70
2023/07/13 04:25:18;;;;;;;6.72;2.30;;;33.60;93.20;;;;;;1796834;78;21155;-70
2023/07/13 04:27:51;;;;;;;16.80;3.87;;;33.60;92.70;;;;;;1763773;80;21593;-69
2023/07/13 04:30:26;;;;;;;12.60;3.40;;;33.60;92.90;;;;;;1768026;80;21137;-68
2023/07/13 04:32:58;;;;;;;8.90;3.17;;;33.70;93.00;;;;;;1805253;78;21206;-68
2023/07/13 04:35:31;;;;;;;19.55;4.25;;;33.80;92.60;;;;;;1803397;78;21319;-69
2023/07/13 04:38:03;;;;;;;8.78;3.15;;;33.90;92.20;;;;;;1779056;80;21196;-68
2023/07/13 04:40:36;;;;;;;8.20;3.92;;;34.00;92.50;;;;;;1797040;79;21139;-68
2023/07/13 04:43:08;;;;;;;3.40;2.27;;;34.00;92.10;;;;;;1799220;79;21173;-71
2023/07/13 04:45:41;;;;;;;11.50;3.20;;;34.00;91.80;;;;;;1787349;79;21095;-68
2023/07/13 04:48:16;;;;;;;4.70;2.52;;;34.00;92.10;;;;;;1833549;77;21517;-69
2023/07/13 04:50:49;;;;;;;6.90;2.70;;;34.00;91.60;;;;;;1823009;77;21165;-68
2023/07/13 04:53:21;;;;;;;11.12;3.58;;;34.00;91.80;;;;;;1826835;77;21092;-71
2023/07/13 04:55:55;;;;;;;5.12;2.30;;;34.00;92.30;;;;;;1829732;77;21530;-73
2023/07/13 04:58:28;;;;;;;6.12;2.75;;;34.10;91.90;;;;;;1824218;77;21595;-68
2023/07/13 05:01:05;;;;;;;5.45;2.83;;;34.20;91.70;;;;;;1821746;77;21179;-67
2023/07/13 05:03:38;;;;;;;6.00;2.40;;;34.30;91.50;;;;;;1820905;77;21472;-68
2023/07/13 05:06:11;;;;;;;5.83;2.70;;;34.30;91.50;;;;;;1794769;78;21676;-70
2023/07/13 05:08:43;;;;;;;4.53;2.30;;;34.40;91.50;;;;;;1792781;78;21244;-68
2023/07/13 05:11:16;;;;;;;5.33;2.80;;;34.60;90.90;;;;;;1838857;77;21091;-68
2023/07/13 05:13:50;;;;;;;4.37;2.00;;;34.50;90.80;;;;;;1790033;79;21104;-68
2023/07/13 05:16:24;;;;;;;5.80;3.20;;;34.50;91.10;;;;;;1832807;77;21209;-67
2023/07/13 05:18:57;;;;;;;5.58;2.58;;;34.50;91.30;;;;;;1833421;77;21236;-69
2023/07/13 05:21:30;;;;;;;5.60;2.70;;;34.50;91.40;;;;;;1829638;77;21617;-69
2023/07/13 05:24:03;;;;;;;6.53;2.40;;;34.60;90.40;;;;;;1828315;77;21109;-68
2023/07/13 05:26:37;;;;;;;4.92;2.42;;;34.60;90.70;;;;;;1822938;77;21224;-68
2023/07/13 05:29:11;;;;;;;3.20;2.05;;;34.70;90.50;;;;;;1824773;77;21088;-70
2023/07/13 05:31:44;;;;;;;6.65;3.35;;;34.70;90.40;;;;;;1839138;77;21524;-68
2023/07/13 05:34:18;;;;;;;3.40;2.27;;;34.80;90.50;;;;;;1829401;77;21141;-71
2023/07/13 05:36:52;;;;;;;3.95;2.20;;;34.80;90.10;;;;;;1830900;77;21076;-69
2023/07/13 05:39:27;;;;;;;4.67;2.22;;;34.90;90.20;;;;;;1824295;77;21140;-73
2023/07/13 05:42:02;;;;;;;16.15;6.37;;;35.00;89.90;;;;;;1828635;76;21457;-70
2023/07/13 05:44:35;;;;;;;18.77;6.28;;;34.90;90.30;;;;;;1821351;77;21096;-68
2023/07/13 05:47:13;;;;;;;7.10;2.92;;;35.00;89.90;;;;;;1826433;77;21084;-70
2023/07/13 05:49:46;;;;;;;5.78;2.70;;;34.90;90.50;;;;;;1835384;77;21167;-70
2023/07/13 05:52:19;;;;;;;4.95;2.60;;;34.70;90.20;;;;;;1827986;77;21135;-67
2023/07/13 05:54:51;;;;;;;6.90;4.42;;;34.50;90.50;;;;;;1829704;77;21558;-70
2023/07/13 05:57:23;;;;;;;4.92;2.58;;;34.40;91.00;;;;;;1825766;77;21083;-68
2023/07/13 05:59:56;;;;;;;5.70;3.00;;;34.30;91.00;;;;;;1829091;77;21071;-68
2023/07/13 06:02:27;;;;;;;6.03;2.67;;;34.20;91.00;;;;;;1786733;79;21130;-68
2023/07/13 06:05:01;;;;;;;6.15;2.65;;;34.20;91.50;;;;;;1793532;78;21091;-68
2023/07/13 06:07:34;;;;;;;6.33;2.98;;;34.10;91.60;;;;;;1830736;77;21133;-68
2023/07/13 06:10:10;;;;;;;5.58;2.05;;;34.20;91.80;;;;;;1825664;77;21174;-67
2023/07/13 06:12:43;;;;;;;4.95;2.45;;;34.30;91.60;;;;;;1831107;77;21151;-68
2023/07/13 06:15:16;;;;;;;6.10;2.72;;;34.20;91.70;;;;;;1822762;77;21075;-69
2023/07/13 06:17:50;;;;;;;17.73;4.12;;;34.20;91.90;;;;;;1828518;77;21111;-69
2023/07/13 06:20:22;;;;;;;17.57;4.85;;;34.10;91.80;;;;;;1806284;78;21175;-69
2023/07/13 06:22:55;;;;;;;13.00;3.60;;;33.80;92.10;;;;;;1801530;78;21159;-68
2023/07/13 06:25:28;;;;;;;23.05;4.67;;;33.50;92.20;;;;;;1814877;78;21074;-70
2023/07/13 06:28:01;;;;;;;35.78;4.78;;;33.30;91.90;;;;;;1834589;77;21185;-68
2023/07/13 06:30:34;;;;;;;13.10;3.27;;;33.00;92.10;;;;;;1792422;79;21130;-67
2023/07/13 06:33:06;;;;;;;31.07;5.10;;;32.80;92.30;;;;;;1800918;78;21128;-68
2023/07/13 06:35:38;;;;;;;12.58;3.52;;;32.60;92.60;;;;;;1795941;78;21100;-68
2023/07/13 06:38:10;;;;;;;11.12;2.77;;;32.40;92.80;;;;;;1802673;78;21113;-67
2023/07/13 06:40:43;;;;;;;10.63;2.92;;;32.30;93.00;;;;;;1797946;78;21222;-67
2023/07/13 06:43:17;;;;;;;5.83;2.83;;;32.10;93.30;;;;;;1802346;79;21551;-68
2023/07/13 06:45:50;;;;;;;22.02;3.67;;;32.00;93.60;;;;;;1804427;78;21156;-67
2023/07/13 06:48:23;;;;;;;29.57;5.47;;;31.80;93.70;;;;;;1811625;79;21167;-68
2023/07/13 06:50:57;;;;;;;9.68;3.15;;;31.70;93.70;;;;;;1835076;77;21253;-68
2023/07/13 06:53:32;;;;;;;3.67;2.30;;;31.70;93.60;;;;;;1803671;78;21187;-68
2023/07/13 06:56:05;;;;;;;5.95;2.45;;;31.70;93.30;;;;;;1807604;78;21121;-67
2023/07/13 06:58:39;;;;;;;4.15;2.37;;;31.60;93.40;;;;;;1797176;78;21531;-67
2023/07/13 07:01:12;;;;;;;3.67;2.15;;;31.50;93.50;;;;;;1808377;78;21076;-68
2023/07/13 07:03:45;;;;;;;6.08;3.35;;;31.40;93.70;;;;;;1793040;78;21560;-68
2023/07/13 07:06:23;;;;;;;8.10;2.90;;;31.40;93.90;;;;;;1799405;79;21099;-68
2023/07/13 07:08:59;;;;;;;11.65;3.75;;;31.30;94.00;;;;;;1826556;77;21270;-68
2023/07/13 07:11:30;;;;;;;9.10;2.85;;;31.30;94.20;;;;;;1827483;77;21147;-67
2023/07/13 07:14:09;;;;;;;7.83;2.52;;;31.20;94.30;;;;;;1821908;77;21505;-67
2023/07/13 07:16:43;;;;;;;6.35;2.65;;;31.20;94.40;;;;;;1835907;77;21569;-67
2023/07/13 07:19:17;;;;;;;7.95;2.58;;;31.10;94.50;;;;;;1826033;77;21162;-68
2023/07/13 07:21:50;;;;;;;14.98;3.83;;;31.00;94.70;;;;;;1831540;77;21075;-67
2023/07/13 07:24:21;;;;;;;21.23;3.85;;;30.90;95.00;;;;;;1836793;77;21091;-67
2023/07/13 07:26:54;;;;;;;7.42;2.67;;;30.90;95.00;;;;;;1842127;77;21083;-68
2023/07/13 07:29:29;;;;;;;13.88;3.60;;;30.90;95.50;;;;;;1830643;77;21138;-67
2023/07/13 07:32:03;;;;;;;14.25;3.72;;;30.70;95.90;;;;;;1836877;77;21090;-68
2023/07/13 07:34:37;;;;;;;9.68;3.60;;;30.70;96.30;;;;;;1837026;77;21554;-70
2023/07/13 07:37:12;;;;;;;8.13;2.90;;;30.60;96.60;;;;;;1829679;77;21667;-68
2023/07/13 07:39:47;;;;;;;8.88;3.33;;;30.50;96.80;;;;;;1838080;77;21149;-68
2023/07/13 07:42:22;;;;;;;12.95;3.85;;;30.50;97.40;;;;;;1828383;77;21158;-67
2023/07/13 07:44:54;;;;;;;10.53;3.52;;;30.40;97.60;;;;;;1830181;77;21087;-66
2023/07/13 07:47:26;;;;;;;6.45;3.62;;;30.30;97.60;;;;;;1821227;77;21107;-66
2023/07/13 07:49:59;;;;;;;8.45;3.45;;;30.30;98.20;;;;;;1827663;77;21149;-67
2023/07/13 07:52:33;;;;;;;8.25;3.37;;;30.20;97.70;;;;;;1829553;77;21099;-69
2023/07/13 07:55:06;;;;;;;9.48;4.03;;;30.20;97.50;;;;;;1837765;77;21189;-66
2023/07/13 07:57:38;;;;;;;6.97;2.77;;;30.20;97.40;;;;;;1823853;77;22173;-67
2023/07/13 08:00:15;;;;;;;16.17;4.50;;;30.10;97.50;;;;;;1770309;79;21170;-69
2023/07/13 08:02:53;;;;;;;11.15;3.90;;;30.10;97.50;;;;;;1816508;79;21655;-68
2023/07/13 08:05:28;;;;;;;8.10;3.42;;;30.10;97.40;;;;;;1783583;78;21200;-69
2023/07/13 08:08:02;;;;;;;6.55;2.87;;;30.10;97.70;;;;;;1797611;78;21499;-66
2023/07/13 08:10:37;;;;;;;8.65;3.40;;;30.10;97.80;;;;;;1828915;77;21075;-68
2023/07/13 08:13:10;;;;;;;10.32;3.75;;;30.00;98.00;;;;;;1796788;78;21620;-67
2023/07/13 08:15:43;;;;;;;7.47;3.72;;;30.10;98.20;;;;;;1791146;79;21082;-67
2023/07/13 08:18:16;;;;;;;10.45;4.10;;;30.10;98.20;;;;;;1796673;78;21093;-67
2023/07/13 08:20:47;;;;;;;20.30;7.40;;;30.10;98.30;;;;;;1784559;79;21145;-68
2023/07/13 08:23:23;;;;;;;5.72;3.70;;;30.10;98.40;;;;;;1787156;79;21155;-69
2023/07/13 08:25:56;;;;;;;9.78;3.52;;;30.10;98.40;;;;;;1821756;77;21131;-67
2023/07/13 08:28:30;;;;;;;11.03;3.72;;;30.00;98.50;;;;;;1822052;77;21082;-69
2023/07/13 08:31:10;;;;;;;6.00;3.30;;;30.00;98.70;;;;;;1821700;77;21580;-68
2023/07/13 08:33:42;;;;;;;8.05;4.08;;;30.00;99.10;;;;;;1823320;77;21095;-69
2023/07/13 08:36:15;;;;;;;22.42;5.30;;;29.80;99.70;;;;;;1797909;78;21491;-68
2023/07/13 08:38:48;;;;;;;16.90;5.95;;;29.70;99.90;;;;;;1796740;78;21154;-68
2023/07/13 08:41:22;;;;;;;19.90;6.92;;;29.70;99.90;;;;;;1781303;79;21499;-67
2023/07/13 08:44:13;;;;;;;16.87;6.05;;;29.60;99.90;;;;;;1810457;79;21219;-68
2023/07/13 08:46:48;;;;;;;19.40;6.05;;;29.50;99.90;;;;;;1822721;76;21080;-68
2023/07/13 08:49:24;;;;;;;8.75;5.47;;;29.50;99.90;;;;;;1828389;77;21071;-69
2023/07/13 08:52:06;;;;;;;31.33;6.70;;;29.40;99.90;;;;;;1821362;79;21091;-70
2023/07/13 08:54:42;;;;;;;21.93;8.95;;;28.50;99.90;;;;;;1816419;77;21505;-69
2023/07/13 08:57:16;;;;;;;;;;;29.30;99.90;;;;;;1792576;79;21185;-69
2023/07/13 08:59:50;;;;;;;15.03;4.55;;;29.20;99.90;;;;;;1821318;77;20165;-69
2023/07/13 09:02:31;;;;;;;16.12;7.45;;;29.10;99.90;;;;;;1818501;79;21067;-69
2023/07/13 09:05:16;;;;;;;20.10;9.58;;;29.10;99.90;;;;;;1816094;77;21098;-69
2023/07/13 09:07:53;;;;;;;14.63;6.47;;;29.10;99.90;;;;;;1791870;78;21175;-66
2023/07/13 09:10:35;;;;;;;35.55;11.60;;;29.10;99.90;;;;;;1818864;77;21094;-68
2023/07/13 09:13:35;;;;;;;13.22;4.28;;;29.10;99.90;;;;;;1796054;78;21248;-68
2023/07/13 09:16:12;;;;;;;7.90;3.50;;;29.10;99.90;;;;;;1818813;79;21589;-68
2023/07/13 09:18:47;;;;;;;9.73;3.30;;;29.10;99.90;;;;;;1827265;77;21166;-66
2023/07/13 09:21:23;;;;;;;11.35;5.25;;;29.10;99.90;;;;;;1800481;78;21158;-67
2023/07/13 09:23:57;;;;;;;9.58;5.12;;;29.00;99.90;;;;;;1790990;78;21095;-66
2023/07/13 09:26:32;;;;;;;11.45;5.17;;;29.00;99.90;;;;;;1802411;78;21075;-67
2023/07/13 09:29:16;;;;;;;19.70;7.00;;;28.90;99.90;;;;;;1804020;78;21166;-68
2023/07/13 09:31:52;;;;;;;16.85;6.33;;;28.80;99.90;;;;;;1790693;78;21194;-67
2023/07/13 09:34:24;;;;;;;16.42;6.72;;;28.90;99.90;;;;;;1829594;77;21576;-66
2023/07/13 09:36:57;;;;;;;19.62;9.35;;;28.90;99.90;;;;;;1800566;78;21062;-67
2023/07/13 09:39:38;;;;;;;19.62;7.72;;;28.90;99.90;;;;;;1807049;78;21169;-66
2023/07/13 09:42:21;;;;;;;8.83;5.17;;;29.00;99.90;;;;;;1805879;78;21622;-66
2023/07/13 09:45:02;;;;;;;16.37;10.40;;;29.00;99.90;;;;;;1820566;77;21526;-68
2023/07/13 09:47:40;;;;;;;17.55;7.12;;;29.00;99.90;;;;;;1839812;77;21093;-67
2023/07/13 09:50:18;;;;;;;17.80;5.72;;;29.10;99.90;;;;;;1819281;77;21186;-68
2023/07/13 09:52:54;;;;;;;23.30;6.85;;;29.10;99.90;;;;;;1825959;77;21131;-68
2023/07/13 09:55:40;;;;;;;15.45;5.62;;;29.20;99.90;;;;;;1840096;77;21067;-66
2023/07/13 09:58:25;;;;;;;15.88;5.10;;;29.20;99.90;;;;;;1830743;77;21102;-65
2023/07/13 10:01:05;;;;;;;11.83;5.15;;;29.20;99.90;;;;;;1844352;77;21702;-67
2023/07/13 10:03:41;;;;;;;16.05;6.85;;;29.20;99.90;;;;;;1809822;79;21107;-67
2023/07/13 10:06:15;;;;;;;11.73;6.40;;;29.20;99.90;;;;;;1809741;79;21139;-68
2023/07/13 10:08:48;;;;;;;12.45;5.35;;;29.20;99.90;;;;;;1838482;77;21162;-67
2023/07/13 10:11:29;;;;;;;13.70;6.47;;;29.30;99.90;;;;;;1828206;77;21175;-69
2023/07/13 10:14:02;;;;;;;9.05;4.67;;;29.30;99.90;;;;;;1837336;77;21534;-69
2023/07/13 10:16:37;;;;;;;17.70;5.90;;;29.30;99.90;;;;;;1822069;78;21530;-68
2023/07/13 10:19:22;;;;;;;7.75;4.60;;;29.30;99.90;;;;;;1836026;77;21116;-67
2023/07/13 10:22:03;;;;;;;9.53;5.60;;;29.30;99.90;;;;;;1801676;78;21124;-67
2023/07/13 10:24:38;;;;;;;11.63;5.45;;;29.30;99.90;;;;;;1832338;77;21170;-67
2023/07/13 10:27:18;;;;;;;9.87;4.73;;;29.30;99.90;;;;;;1805656;78;21162;-68
2023/07/13 10:29:53;;;;;;;10.48;5.70;;;29.30;99.90;;;;;;1793416;79;21129;-67
2023/07/13 10:32:26;;;;;;;9.23;4.25;;;29.30;99.90;;;;;;1834320;77;21099;-68
2023/07/13 10:35:02;;;;;;;17.98;6.37;;;29.30;99.90;;;;;;1789973;78;21565;-68
2023/07/13 10:37:46;;;;;;;13.40;7.40;;;29.30;99.90;;;;;;1797072;79;21087;-67
2023/07/13 10:40:23;;;;;;;11.33;5.78;;;29.40;99.90;;;;;;1829725;77;21064;-68
2023/07/13 10:43:02;;;;;;;7.22;5.90;;;29.30;99.90;;;;;;1846353;76;21232;-67
2023/07/13 10:45:37;;;;;;;14.20;6.37;;;29.30;99.90;;;;;;1834931;77;21084;-70
2023/07/13 10:48:13;;;;;;;7.22;5.80;;;29.30;99.90;;;;;;1799936;78;21193;-67
2023/07/13 10:50:49;;;;;;;10.15;5.33;;;29.30;99.90;;;;;;1825386;77;21518;-68
2023/07/13 10:53:24;;;;;;;14.85;5.20;;;29.30;99.90;;;;;;1819613;77;21061;-67
2023/07/13 10:56:11;;;;;;;17.25;5.28;;;29.20;99.90;;;;;;1823315;77;21087;-68
2023/07/13 10:58:46;;;;;;;15.18;5.03;;;29.20;99.90;;;;;;1788937;79;21235;-68
2023/07/13 11:01:20;;;;;;;9.93;5.10;;;29.20;99.90;;;;;;1794661;78;21140;-68
2023/07/13 11:03:59;;;;;;;10.32;4.83;;;29.20;99.90;;;;;;1793167;78;21170;-67
2023/07/13 11:06:49;;;;;;;13.68;4.83;;;29.20;99.90;;;;;;1846378;77;21076;-66
2023/07/13 11:09:40;;;;;;;9.78;5.60;;;29.20;99.90;;;;;;1805800;78;21617;-67
2023/07/13 11:12:22;;;;;;;11.15;5.35;;;29.20;99.90;;;;;;1823883;77;21193;-66
2023/07/13 11:15:06;;;;;;;8.05;4.80;;;29.20;99.90;;;;;;1825622;77;21603;-67
2023/07/13 11:18:00;;;;;;;7.40;4.95;;;29.30;99.90;;;;;;1810451;79;21079;-67
2023/07/13 11:20:35;;;;;;;7.22;5.08;;;29.30;99.90;;;;;;1838086;77;21095;-68
2023/07/13 11:23:17;;;;;;;11.85;5.37;;;29.30;99.90;;;;;;1821499;77;21161;-68
2023/07/13 11:25:53;;;;;;;10.05;5.90;;;29.30;99.90;;;;;;1802936;79;21865;-68
2023/07/13 11:28:29;;;;;;;9.00;5.25;;;29.30;99.90;;;;;;1787087;79;21100;-69
2023/07/13 11:31:03;;;;;;;8.93;5.05;;;29.30;99.90;;;;;;1820507;77;21096;-68
2023/07/13 11:33:42;;;;;;;12.10;6.10;;;29.30;99.90;;;;;;1813313;79;21619;-68
2023/07/13 11:36:21;;;;;;;10.88;6.55;;;29.30;99.90;;;;;;1817616;78;21170;-67
2023/07/13 11:39:01;;;;;;;8.48;5.15;;;29.30;99.90;;;;;;1794504;78;21597;-67
2023/07/13 11:41:41;;;;;;;7.83;6.25;;;29.30;99.90;;;;;;1773496;79;21542;-68
2023/07/13 11:44:17;;;;;;;8.38;5.40;;;29.30;99.90;;;;;;1783639;79;21240;-68
2023/07/13 11:46:55;;;;;;;10.93;6.42;;;29.30;99.90;;;;;;1808703;79;21095;-77
2023/07/13 11:49:35;;;;;;;11.60;6.30;;;29.30;99.90;;;;;;1822924;78;21162;-80
2023/07/13 11:52:17;;;;;;;10.10;5.75;;;29.30;99.90;;;;;;1793549;80;21099;-80
2023/07/13 11:55:00;;;;;;;11.50;7.33;;;29.30;99.90;;;;;;1774503;79;21072;-79
2023/07/13 11:57:35;;;;;;;6.58;5.00;;;29.30;99.90;;;;;;1798044;79;21135;-79
2023/07/13 12:00:17;;;;;;;7.33;5.17;;;29.30;99.90;;;;;;1792570;79;21088;-79
2023/07/13 12:02:51;;;;;;;8.90;5.20;;;29.30;99.90;;;;;;1820267;77;21088;-78
2023/07/13 12:05:24;;;;;;;8.90;4.97;;;29.30;99.90;;;;;;1791400;79;21127;-79
2023/07/13 12:08:03;;;;;;;9.15;4.95;;;29.20;99.90;;;;;;1822174;78;21158;-78
2023/07/13 12:10:42;;;;;;;5.15;4.40;;;29.20;99.90;;;;;;1807071;79;21267;-78
2023/07/13 12:13:23;;;;;;;6.75;4.60;;;29.20;99.90;;;;;;1831745;77;21131;-78
2023/07/13 12:15:58;;;;;;;9.53;4.70;;;29.10;99.90;;;;;;1838301;77;21193;-80
2023/07/13 12:18:33;;;;;;;7.20;4.17;;;29.10;99.90;;;;;;1837446;77;21158;-77
2023/07/13 12:21:09;;;;;;;7.97;5.72;;;29.10;99.90;;;;;;1830642;77;21131;-81
2023/07/13 12:23:46;;;;;;;10.80;5.50;;;29.10;99.90;;;;;;1780336;79;21648;-78
2023/07/13 12:26:35;;;;;;;8.98;5.50;;;29.00;99.90;;;;;;1834750;78;21555;-79
2023/07/13 12:29:17;;;;;;;10.85;6.55;;;29.00;99.90;;;;;;1826567;78;21104;-77
2023/07/13 12:31:54;;;;;;;8.20;6.15;;;29.00;99.90;;;;;;1814645;78;21143;-78
2023/07/13 12:34:30;;;;;;;10.32;4.97;;;28.90;99.90;;;;;;1826938;78;21108;-76
2023/07/13 12:37:09;;;;;;;6.10;3.92;;;28.90;99.90;;;;;;1807278;79;21067;-76
2023/07/13 12:39:51;;;;;;;6.20;4.08;;;28.90;99.90;;;;;;1785182;79;21233;-79
2023/07/13 12:42:32;;;;;;;11.88;4.85;;;28.90;99.90;;;;;;1827644;78;21084;-79
2023/07/13 12:45:22;;;;;;;5.47;4.08;;;28.80;99.90;;;;;;1802019;79;21466;-78
2023/07/13 12:48:00;;;;;;;7.08;4.10;;;28.80;99.90;;;;;;1779150;79;21138;-80
2023/07/13 12:50:43;;;;;;;8.88;4.33;;;28.80;99.90;;;;;;1816561;78;21123;-80
2023/07/13 12:53:19;;;;;;;6.95;3.95;;;28.80;99.90;;;;;;1808971;79;21503;-79
2023/07/13 12:56:00;;;;;;;9.83;4.23;;;28.80;99.90;;;;;;1806088;78;21083;-79
2023/07/13 12:58:45;;;;;;;8.33;4.22;;;28.80;99.90;;;;;;1809199;79;21506;-82
2023/07/13 13:01:18;;;;;;;8.60;4.22;;;28.80;99.90;;;;;;1839293;77;21546;-80
2023/07/13 13:03:55;;;;;;;7.83;3.95;;;28.80;99.90;;;;;;1824086;77;21154;-81
2023/07/13 13:06:30;;;;;;;7.03;3.52;;;28.80;99.90;;;;;;1785724;79;21184;-82
2023/07/13 13:09:03;;;;;;;5.62;4.20;;;28.70;99.90;;;;;;1821105;78;21107;-79
2023/07/13 13:11:35;;;;;;;8.23;4.35;;;28.80;99.90;;;;;;1815197;78;21142;-77
2023/07/13 13:14:11;;;;;;;6.40;4.47;;;28.70;99.90;;;;;;1814746;78;21573;-80
2023/07/13 13:16:52;;;;;;;10.00;4.42;;;28.70;99.90;;;;;;1815508;78;21136;-81
2023/07/13 13:19:27;;;;;;;9.40;4.42;;;28.70;99.90;;;;;;1790594;79;21166;-77
2023/07/13 13:22:02;;;;;;;5.80;4.40;;;28.70;99.90;;;;;;1833603;77;21119;-80
2023/07/13 13:24:44;;;;;;;9.75;4.70;;;28.70;99.90;;;;;;1836826;77;21088;-81
2023/07/13 13:27:23;;;;;;;8.90;4.90;;;28.70;99.90;;;;;;1776916;80;21138;-81